createdAt,value
2023-05-08T00:02:42.667Z,55.93
2023-05-08T00:07:46.384Z,57.06
2023-05-08T00:12:49.537Z,57.59
2023-05-08T00:17:52.729Z,57.39
2023-05-08T00:22:57.028Z,57.51
2023-05-08T00:28:01.175Z,57.57
2023-05-08T00:33:04.839Z,57.82
2023-05-08T00:38:07.986Z,58.42
2023-05-08T00:43:11.206Z,58.99
2023-05-08T00:48:14.411Z,59.49
2023-05-08T00:53:19.418Z,59.53
2023-05-08T00:58:27.386Z,60.08
2023-05-08T01:03:36.285Z,59.78
2023-05-08T01:08:39.937Z,59.66
2023-05-08T01:14:04.858Z,61.00
2023-05-08T01:19:53.224Z,70.51
2023-05-08T01:25:58.307Z,73.86
2023-05-08T01:31:22.618Z,64.19
2023-05-08T01:36:39.931Z,53.73
2023-05-08T01:41:54.102Z,51.37
2023-05-08T01:46:59.645Z,51.84
2023-05-08T01:52:14.233Z,53.08
2023-05-08T01:57:20.993Z,54.08
2023-05-08T02:02:26.350Z,55.19
2023-05-08T02:07:29.600Z,56.48
2023-05-08T02:12:34.421Z,57.18
2023-05-08T02:17:41.130Z,58.16
2023-05-08T02:22:49.300Z,58.45
2023-05-08T02:27:55.504Z,59.55
2023-05-08T02:33:01.402Z,60.12
2023-05-08T02:38:11.061Z,60.75
2023-05-08T02:43:14.587Z,61.04
2023-05-08T02:48:33.564Z,68.51
2023-05-08T02:53:48.088Z,72.52
2023-05-08T02:59:02.707Z,64.00
2023-05-08T03:04:11.077Z,55.79
2023-05-08T03:09:21.678Z,52.70
2023-05-08T03:14:29.434Z,53.48
2023-05-08T03:19:39.509Z,54.50
2023-05-08T03:24:46.171Z,55.57
2023-05-08T03:29:52.480Z,56.03
2023-05-08T03:34:59.873Z,56.43
2023-05-08T03:40:04.039Z,57.28
2023-05-08T03:45:11.049Z,58.69
2023-05-08T03:50:15.405Z,60.34
2023-05-08T03:55:18.551Z,59.52
2023-05-08T04:00:43.680Z,68.26
2023-05-08T04:06:16.140Z,73.99
2023-05-08T04:11:32.152Z,66.97
2023-05-08T04:16:46.054Z,61.44
2023-05-08T04:21:51.789Z,52.87
2023-05-08T04:26:55.563Z,50.91
2023-05-08T04:32:01.893Z,51.72
2023-05-08T04:37:08.183Z,53.07
2023-05-08T04:42:11.203Z,53.85
2023-05-08T04:47:14.956Z,54.99
2023-05-08T04:52:18.147Z,55.57
2023-05-08T04:57:21.248Z,55.57
2023-05-08T05:02:27.339Z,55.27
2023-05-08T05:07:30.539Z,55.82
2023-05-08T05:12:33.727Z,55.35
2023-05-08T05:17:36.921Z,55.64
2023-05-08T05:22:40.729Z,55.57
2023-05-08T05:27:45.511Z,55.72
2023-05-08T05:32:49.664Z,55.70
2023-05-08T05:37:52.743Z,55.79
2023-05-08T05:42:56.048Z,56.07
2023-05-08T05:47:59.179Z,55.96
2023-05-08T05:53:02.673Z,55.86
2023-05-08T05:58:05.778Z,57.06
2023-05-08T06:03:10.997Z,56.74
2023-05-08T06:08:14.245Z,56.63
2023-05-08T06:13:17.573Z,56.96
2023-05-08T06:18:24.480Z,56.53
2023-05-08T06:23:27.973Z,56.87
2023-05-08T06:28:31.178Z,56.26
2023-05-08T06:33:34.282Z,56.68
2023-05-08T06:38:37.617Z,56.41
2023-05-08T06:43:41.022Z,56.31
2023-05-08T06:48:44.224Z,55.46
2023-05-08T06:53:47.324Z,54.72
2023-05-08T06:59:00.919Z,53.83
2023-05-08T07:04:11.039Z,52.68
2023-05-08T07:09:14.461Z,51.94
2023-05-08T07:14:17.682Z,50.85
2023-05-08T07:19:22.577Z,50.29
2023-05-08T07:24:26.039Z,48.76
2023-05-08T07:29:29.450Z,47.69
2023-05-08T07:34:35.095Z,46.97
2023-05-08T07:39:38.215Z,45.17
2023-05-08T07:44:53.769Z,44.21
2023-05-08T07:49:58.474Z,43.44
2023-05-08T07:55:01.682Z,41.98
2023-05-08T08:00:09.390Z,41.02
2023-05-08T08:05:13.239Z,38.86
2023-05-08T08:10:16.820Z,38.72
2023-05-08T08:15:23.146Z,37.47
2023-05-08T08:20:26.318Z,35.80
2023-05-08T08:25:29.999Z,35.60
2023-05-08T08:30:33.242Z,36.62
2023-05-08T08:35:36.463Z,36.41
2023-05-08T08:40:41.765Z,36.11
2023-05-08T08:45:45.634Z,35.16
2023-05-08T08:50:57.543Z,34.71
2023-05-08T08:56:04.251Z,35.35
2023-05-08T09:01:14.883Z,34.76
2023-05-08T09:06:19.776Z,34.63
2023-05-08T09:11:24.641Z,34.51
2023-05-08T09:16:28.880Z,33.95
2023-05-08T09:21:32.885Z,33.63
2023-05-08T09:26:39.869Z,33.48
2023-05-08T09:31:52.688Z,32.60
2023-05-08T09:37:05.745Z,32.38
2023-05-08T09:42:09.605Z,32.59
2023-05-08T09:47:20.125Z,32.81
2023-05-08T09:52:24.480Z,30.30
2023-05-08T09:57:29.431Z,30.89
2023-05-08T10:02:33.195Z,30.98
2023-05-08T10:07:39.338Z,31.93
2023-05-08T10:12:42.836Z,32.13
2023-05-08T10:17:58.425Z,31.87
2023-05-08T10:23:03.910Z,31.23
2023-05-08T10:28:18.696Z,31.11
2023-05-08T10:33:32.185Z,31.02
2023-05-08T10:38:38.035Z,30.11
2023-05-08T10:43:44.314Z,29.72
2023-05-08T10:49:24.992Z,27.63
2023-05-08T10:54:54.206Z,29.32
2023-05-08T10:59:57.530Z,29.89
2023-05-08T11:05:18.423Z,28.84
2023-05-08T11:10:23.045Z,27.85
2023-05-08T11:15:41.752Z,27.15
2023-05-08T11:21:15.705Z,27.30
2023-05-08T11:26:18.799Z,26.78
2023-05-08T11:31:22.245Z,27.34
2023-05-08T11:36:26.035Z,28.15
2023-05-08T11:41:29.225Z,26.93
2023-05-08T11:46:51.396Z,26.63
2023-05-08T11:51:58.804Z,26.51
2023-05-08T11:57:02.708Z,25.05
2023-05-08T12:02:09.113Z,26.21
2023-05-08T12:07:13.230Z,24.77
2023-05-08T12:12:16.539Z,24.07
2023-05-08T12:17:20.127Z,24.26
2023-05-08T12:22:23.499Z,24.26
2023-05-08T12:27:27.306Z,25.08
2023-05-08T12:32:30.749Z,24.16
2023-05-08T12:37:34.122Z,24.27
2023-05-08T12:42:50.214Z,23.52
2023-05-08T12:47:58.884Z,23.64
2023-05-08T12:53:18.502Z,23.46
2023-05-08T12:58:27.045Z,24.09
2023-05-08T13:03:31.326Z,23.72
2023-05-08T13:08:39.366Z,23.42
2023-05-08T13:13:42.475Z,23.42
2023-05-08T13:18:45.974Z,21.85
2023-05-08T13:23:49.121Z,23.21
2023-05-08T13:28:54.571Z,21.76
2023-05-08T13:33:59.385Z,22.96
2023-05-08T13:39:02.599Z,23.01
2023-05-08T13:44:06.123Z,23.06
2023-05-08T13:49:09.219Z,23.16
2023-05-08T13:54:12.323Z,22.27
2023-05-08T13:59:16.249Z,21.82
2023-05-08T14:04:19.656Z,21.97
2023-05-08T14:09:22.770Z,22.75
2023-05-08T14:14:26.073Z,21.33
2023-05-08T14:19:29.391Z,21.74
2023-05-08T14:24:33.004Z,22.97
2023-05-08T14:29:36.526Z,22.91
2023-05-08T14:34:39.628Z,22.42
2023-05-08T14:39:42.840Z,22.37
2023-05-08T14:44:46.277Z,21.53
2023-05-08T14:49:49.565Z,21.78
2023-05-08T14:54:53.954Z,21.08
2023-05-08T14:59:57.413Z,20.88
2023-05-08T15:05:00.555Z,20.48
2023-05-08T15:10:04.755Z,19.82
2023-05-08T15:15:08.405Z,18.80
2023-05-08T15:20:11.997Z,18.91
2023-05-08T15:25:41.107Z,19.56
2023-05-08T15:30:47.286Z,20.86
2023-05-08T15:35:49.264Z,20.72
2023-05-08T15:40:51.083Z,21.03
2023-05-08T15:45:53.010Z,20.56
2023-05-08T15:50:55.102Z,19.44
2023-05-08T15:55:57.415Z,18.97
2023-05-08T16:00:59.595Z,19.10
2023-05-08T16:06:01.594Z,19.71
2023-05-08T16:11:03.958Z,19.71
2023-05-08T16:16:06.178Z,19.95
2023-05-08T16:21:17.150Z,19.39
2023-05-08T16:26:19.942Z,19.33
2023-05-08T16:31:22.018Z,19.32
2023-05-08T16:36:23.689Z,19.30
2023-05-08T16:41:27.400Z,18.37
2023-05-08T16:46:30.438Z,17.98
2023-05-08T16:51:32.583Z,18.23
2023-05-08T16:56:34.572Z,17.83
2023-05-08T17:01:36.518Z,18.22
2023-05-08T17:06:42.537Z,18.75
2023-05-08T17:11:44.408Z,18.05
2023-05-08T17:16:46.431Z,18.30
2023-05-08T17:21:48.689Z,18.30
2023-05-08T17:26:50.572Z,18.60
2023-05-08T17:31:52.542Z,18.77
2023-05-08T17:36:55.089Z,19.56
2023-05-08T17:41:57.195Z,20.19
2023-05-08T17:46:59.072Z,20.47
2023-05-08T17:52:03.000Z,21.43
2023-05-08T17:57:04.881Z,22.23
2023-05-08T18:02:07.245Z,23.01
2023-05-08T18:07:09.071Z,23.79
2023-05-08T18:12:11.129Z,24.78
2023-05-08T18:17:16.486Z,25.59
2023-05-08T18:22:18.365Z,26.21
2023-05-08T18:27:20.163Z,27.34
2023-05-08T18:32:22.130Z,28.02
2023-05-08T18:37:24.527Z,28.54
2023-05-08T18:42:26.486Z,28.96
2023-05-08T18:47:28.432Z,29.26
2023-05-08T18:52:30.365Z,29.94
2023-05-08T18:57:32.332Z,30.44
2023-05-08T19:02:34.422Z,30.70
2023-05-08T19:07:37.212Z,30.94
2023-05-08T19:12:39.423Z,31.43
2023-05-08T19:17:42.213Z,31.97
2023-05-08T19:22:44.166Z,33.01
2023-05-08T19:27:46.251Z,33.76
2023-05-08T19:32:49.365Z,33.65
2023-05-08T19:37:51.234Z,33.81
2023-05-08T19:42:53.225Z,34.19
2023-05-08T19:47:55.020Z,34.29
2023-05-08T19:52:57.069Z,34.82
2023-05-08T19:57:58.844Z,34.64
2023-05-08T20:03:00.698Z,34.87
2023-05-08T20:08:02.681Z,34.96
2023-05-08T20:13:05.207Z,34.79
2023-05-08T20:18:07.521Z,34.83
2023-05-08T20:23:09.665Z,34.94
2023-05-08T20:28:11.971Z,35.29
2023-05-08T20:33:14.034Z,35.40
2023-05-08T20:38:15.996Z,35.60
2023-05-08T20:43:19.222Z,35.79
2023-05-08T20:48:21.301Z,36.03
2023-05-08T20:53:23.205Z,36.63
2023-05-08T20:58:25.058Z,37.03
2023-05-08T21:03:27.276Z,37.55
2023-05-08T21:08:29.017Z,38.33
2023-05-08T21:13:31.620Z,39.11
2023-05-08T21:18:33.390Z,39.56
2023-05-08T21:23:35.171Z,40.57
2023-05-08T21:28:36.946Z,41.11
2023-05-08T21:33:38.924Z,41.83
2023-05-08T21:38:41.695Z,42.62
2023-05-08T21:43:43.807Z,43.08
2023-05-08T21:48:45.795Z,43.99
2023-05-08T21:53:47.761Z,44.22
2023-05-08T21:58:49.751Z,44.84
2023-05-08T22:03:51.652Z,45.03
2023-05-08T22:08:53.814Z,45.66
2023-05-08T22:13:55.591Z,46.20
2023-05-08T22:18:57.461Z,46.83
2023-05-08T22:23:59.549Z,47.65
2023-05-08T22:29:01.417Z,48.77
2023-05-08T22:34:03.192Z,49.24
2023-05-08T22:39:07.542Z,49.57
2023-05-08T22:44:10.463Z,49.56
2023-05-08T22:49:12.522Z,49.78
2023-05-08T22:54:14.287Z,49.91
2023-05-08T22:59:16.170Z,49.19
2023-05-08T23:04:18.224Z,48.72
2023-05-08T23:09:20.231Z,49.17
2023-05-08T23:14:22.006Z,50.72
2023-05-08T23:19:23.779Z,51.31
2023-05-08T23:24:25.796Z,51.85
2023-05-08T23:29:28.660Z,52.49
2023-05-08T23:34:30.448Z,53.37
2023-05-08T23:39:37.327Z,53.72
2023-05-08T23:44:39.208Z,53.72
2023-05-08T23:49:41.056Z,54.28
2023-05-08T23:54:42.763Z,54.30
2023-05-08T23:59:44.632Z,54.67
